Time;durP1;ratioP1;P1;durP2;ratioP2;P2;SDS_P1;SDS_P2;PMS_P1;PMS_P2;Temp;Humidity;BMP_temperature;BMP_pressure;BME280_temperature;BME280_humidity;BME280_pressure;Samples;Min_cycle;Max_cycle;Signal;HPM_P1;HPM_P2
2021/04/17 00:00:06;;;;;;;3.50;3.20;;;6.20;69.30;6.60;99845.00;;;;338826;28;86005;-84
2021/04/17 00:00:19;;;;;;;4.70;3.13;;;6.10;69.40;6.60;99847.00;;;;337677;28;83486;-84
2021/04/17 00:00:30;;;;;;;4.40;3.00;;;6.20;69.30;6.60;99836.00;;;;336372;28;82792;-85
2021/04/17 00:00:42;;;;;;;3.53;2.80;;;6.20;69.20;6.40;99850.00;;;;334995;28;83442;-84
2021/04/17 00:00:53;;;;;;;3.17;2.85;;;6.20;69.40;6.30;99838.00;;;;332414;29;85653;-85
2021/04/17 00:01:05;;;;;;;4.20;3.17;;;6.10;69.30;6.20;99845.00;;;;336280;28;83435;-85
2021/04/17 00:01:16;;;;;;;4.53;3.80;;;6.10;69.30;6.30;99852.00;;;;336224;28;88717;-84
2021/04/17 00:01:29;;;;;;;4.40;3.75;;;6.10;69.40;6.20;99856.00;;;;338948;28;84571;-84
2021/04/17 00:01:41;;;;;;;3.78;3.45;;;6.10;69.40;6.20;99859.00;;;;338265;28;85132;-86
2021/04/17 00:01:53;;;;;;;3.17;2.88;;;6.00;69.40;6.30;99845.00;;;;337398;28;84773;-84
2021/04/17 00:02:06;;;;;;;3.28;2.97;;;6.00;69.40;6.20;99848.00;;;;336049;28;88306;-84
2021/04/17 00:02:20;;;;;;;4.65;3.40;;;6.00;69.40;6.30;99835.00;;;;334981;29;83230;-85
2021/04/17 00:02:31;;;;;;;4.63;3.47;;;6.00;69.50;6.30;99844.00;;;;337299;28;88635;-84
2021/04/17 00:02:44;;;;;;;4.45;3.58;;;6.00;69.40;6.30;99854.00;;;;337472;28;83516;-84
2021/04/17 00:02:55;;;;;;;4.78;3.30;;;6.00;69.60;6.40;99854.00;;;;338979;28;84375;-85
2021/04/17 00:03:07;;;;;;;3.85;2.92;;;6.00;69.60;6.40;99844.00;;;;340096;28;84890;-84
2021/04/17 00:03:18;;;;;;;3.53;2.88;;;6.00;69.50;6.30;99848.00;;;;338908;28;86789;-84
2021/04/17 00:03:29;;;;;;;3.38;2.95;;;6.00;69.60;6.40;99838.00;;;;341375;28;84079;-84
2021/04/17 00:03:41;;;;;;;4.07;3.10;;;6.00;69.60;6.40;99851.00;;;;337574;28;87760;-84
2021/04/17 00:03:52;;;;;;;4.32;3.38;;;6.00;69.60;6.30;99846.00;;;;338797;28;84948;-84
2021/04/17 00:04:05;;;;;;;4.97;3.45;;;6.00;69.60;6.40;99844.00;;;;337417;28;85345;-84
2021/04/17 00:04:16;;;;;;;4.57;3.28;;;6.00;69.60;6.40;99843.00;;;;338904;28;85272;-83
2021/04/17 00:04:28;;;;;;;3.70;3.03;;;6.00;69.60;6.30;99850.00;;;;338924;28;84315;-85
2021/04/17 00:04:39;;;;;;;5.25;3.28;;;6.00;69.70;6.30;99837.00;;;;336588;28;83582;-83
2021/04/17 00:04:51;;;;;;;5.60;3.25;;;6.00;69.70;6.30;99839.00;;;;338361;28;87128;-84
2021/04/17 00:05:05;;;;;;;5.25;3.28;;;6.00;69.60;6.40;99846.00;;;;337401;28;84154;-84
2021/04/17 00:05:16;;;;;;;3.70;2.97;;;6.00;69.60;6.40;99851.00;;;;336171;28;84458;-84
2021/04/17 00:05:28;;;;;;;3.95;3.13;;;6.00;69.60;6.40;99843.00;;;;336266;28;85633;-84
2021/04/17 00:05:39;;;;;;;4.10;3.00;;;6.00;69.50;6.40;99844.00;;;;336122;28;86698;-84
2021/04/17 00:05:50;;;;;;;4.82;3.22;;;6.00;69.50;6.40;99846.00;;;;336156;28;84781;-84
2021/04/17 00:06:02;;;;;;;5.57;3.38;;;6.00;69.40;6.40;99844.00;;;;336228;28;85683;-84
2021/04/17 00:06:13;;;;;;;5.82;3.67;;;6.10;69.50;6.50;99839.00;;;;336099;28;83639;-84
2021/04/17 00:06:24;;;;;;;5.70;3.53;;;6.10;69.50;6.50;99841.00;;;;337324;28;85983;-84
2021/04/17 00:06:36;;;;;;;4.60;2.92;;;6.10;69.50;6.50;99842.00;;;;333745;29;83547;-84
2021/04/17 00:06:47;;;;;;;4.43;3.08;;;6.10;69.40;6.40;99843.00;;;;336306;28;84904;-84
2021/04/17 00:06:58;;;;;;;3.65;3.30;;;6.10;69.50;6.40;99843.00;;;;333635;29;84871;-84
2021/04/17 00:07:11;;;;;;;4.05;3.65;;;6.10;69.40;6.40;99845.00;;;;336317;28;84681;-86
2021/04/17 00:07:22;;;;;;;4.00;3.60;;;6.10;69.30;6.40;99843.00;;;;334963;29;85188;-84
2021/04/17 00:07:34;;;;;;;4.70;3.75;;;6.10;69.30;6.40;99836.00;;;;337899;28;85812;-84
2021/04/17 00:07:45;;;;;;;4.50;3.80;;;6.10;69.40;6.30;99846.00;;;;339420;28;83736;-84
2021/04/17 00:07:56;;;;;;;4.20;3.65;;;6.10;69.50;6.20;99844.00;;;;336204;28;85218;-84
2021/04/17 00:08:08;;;;;;;4.22;3.33;;;6.10;69.50;6.30;99837.00;;;;338214;28;84275;-84
2021/04/17 00:08:19;;;;;;;4.25;3.15;;;6.00;69.40;6.40;99840.00;;;;337643;28;85905;-84
2021/04/17 00:08:31;;;;;;;4.53;3.08;;;6.00;69.40;6.40;99845.00;;;;340251;28;83389;-84
2021/04/17 00:08:42;;;;;;;5.45;3.40;;;6.10;69.60;6.40;99844.00;;;;336382;28;85217;-84
2021/04/17 00:08:54;;;;;;;5.35;3.30;;;6.10;69.60;6.30;99852.00;;;;337611;28;84374;-84
2021/04/17 00:09:08;;;;;;;5.35;3.58;;;6.10;69.60;6.20;99846.00;;;;336123;28;87373;-83
2021/04/17 00:09:22;;;;;;;4.88;3.42;;;6.00;69.60;6.30;99851.00;;;;334556;29;83744;-85
2021/04/17 00:09:34;;;;;;;3.85;3.22;;;6.00;69.60;6.30;99849.00;;;;336355;28;89033;-84
2021/04/17 00:09:45;;;;;;;3.78;3.22;;;6.00;69.60;6.20;99845.00;;;;343102;28;83425;-83
2021/04/17 00:09:56;;;;;;;4.30;3.40;;;6.00;69.70;6.30;99846.00;;;;341604;28;85356;-84
2021/04/17 00:10:09;;;;;;;3.92;3.30;;;6.00;69.60;6.30;99841.00;;;;340373;28;83896;-84
2021/04/17 00:10:20;;;;;;;3.70;3.30;;;6.00;69.70;6.20;99848.00;;;;340060;28;86885;-88
2021/04/17 00:10:31;;;;;;;3.97;3.58;;;6.00;69.80;6.30;99840.00;;;;341409;28;85863;-85
2021/04/17 00:10:42;;;;;;;3.92;3.38;;;6.00;69.70;6.30;99847.00;;;;343260;28;85791;-84
2021/04/17 00:10:54;;;;;;;3.97;3.40;;;6.00;69.80;6.30;99835.00;;;;342433;28;83460;-84
2021/04/17 00:11:05;;;;;;;4.53;3.60;;;6.00;69.70;6.30;99851.00;;;;342384;28;87759;-83
2021/04/17 00:11:16;;;;;;;5.26;3.76;;;6.00;69.90;6.30;99851.00;;;;341497;28;84846;-84
2021/04/17 00:11:28;;;;;;;4.65;3.55;;;6.00;69.80;6.40;99844.00;;;;341638;28;87808;-84
2021/04/17 00:11:40;;;;;;;4.13;3.08;;;6.00;69.80;6.40;99837.00;;;;342309;28;84735;-84
2021/04/17 00:11:53;;;;;;;3.70;3.00;;;6.00;69.80;6.40;99844.00;;;;341649;28;85320;-84
2021/04/17 00:12:10;;;;;;;3.92;3.10;;;6.00;69.80;6.30;99849.00;;;;343047;28;82549;-84
2021/04/17 00:12:21;;;;;;;4.78;3.42;;;6.00;69.80;6.40;99846.00;;;;342775;28;86944;-85
2021/04/17 00:12:33;;;;;;;5.05;3.47;;;6.00;69.70;6.20;99848.00;;;;342942;28;82429;-84
2021/04/17 00:12:44;;;;;;;4.45;3.42;;;6.00;69.80;6.20;99840.00;;;;341555;28;88681;-84
2021/04/17 00:12:55;;;;;;;4.20;3.42;;;6.00;69.90;6.30;99844.00;;;;342991;28;83826;-84
2021/04/17 00:13:06;;;;;;;3.92;3.33;;;6.00;70.40;6.20;99843.00;;;;343012;28;84214;-84
2021/04/17 00:13:18;;;;;;;3.80;3.13;;;6.00;69.80;6.20;99846.00;;;;344375;28;82490;-85
2021/04/17 00:13:29;;;;;;;4.38;3.08;;;5.90;69.80;6.10;99841.00;;;;344334;28;87420;-83
2021/04/17 00:13:42;;;;;;;4.10;2.90;;;5.90;69.80;6.20;99842.00;;;;342162;28;84661;-84
2021/04/17 00:13:53;;;;;;;3.45;3.10;;;5.90;69.80;6.10;99848.00;;;;341892;28;85031;-84
2021/04/17 00:14:06;;;;;;;4.25;3.20;;;6.00;70.00;6.20;99847.00;;;;340607;28;83184;-84
2021/04/17 00:14:24;;;;;;;4.07;3.35;;;5.90;70.00;6.20;99846.00;;;;341574;28;88754;-84
2021/04/17 00:14:53;;;;;;;3.92;3.50;;;5.90;70.10;6.30;99843.00;;;;340422;28;83211;-84
2021/04/17 00:15:05;;;;;;;3.97;3.58;;;5.90;70.10;6.30;99841.00;;;;341707;28;84181;-84
2021/04/17 00:15:17;;;;;;;3.80;3.45;;;5.90;70.00;6.20;99843.00;;;;341606;28;83485;-84
2021/04/17 00:15:28;;;;;;;3.65;3.25;;;5.90;70.00;6.20;99838.00;;;;342820;28;85344;-84
2021/04/17 00:15:39;;;;;;;3.42;3.13;;;5.90;70.10;6.20;99836.00;;;;341521;28;84588;-84
2021/04/17 00:15:51;;;;;;;4.07;2.95;;;5.90;70.00;6.30;99849.00;;;;342900;28;87464;-84
2021/04/17 00:16:03;;;;;;;3.92;2.95;;;5.90;69.90;6.20;99852.00;;;;342992;28;84737;-84
2021/04/17 00:16:15;;;;;;;4.25;3.03;;;5.90;70.00;6.20;99850.00;;;;340284;28;85393;-84
2021/04/17 00:16:26;;;;;;;4.20;3.22;;;5.90;70.00;6.30;99844.00;;;;340342;28;83422;-84
2021/04/17 00:16:38;;;;;;;4.60;3.50;;;5.90;70.10;6.30;99854.00;;;;340910;28;89226;-85
2021/04/17 00:16:50;;;;;;;4.22;3.30;;;5.90;70.20;6.30;99841.00;;;;342306;28;85361;-84
2021/04/17 00:17:02;;;;;;;3.33;2.88;;;5.90;70.10;6.20;99840.00;;;;341580;28;86341;-84
2021/04/17 00:17:15;;;;;;;5.95;3.45;;;5.90;70.20;6.30;99843.00;;;;344300;28;83690;-84
2021/04/17 00:17:28;;;;;;;7.13;3.88;;;5.90;70.20;6.20;99839.00;;;;342921;28;87786;-84
2021/04/17 00:17:40;;;;;;;6.22;3.83;;;5.90;70.10;6.30;99842.00;;;;341759;28;83248;-84
2021/04/17 00:17:51;;;;;;;4.72;3.55;;;5.90;70.10;6.30;99836.00;;;;344302;28;84834;-85
2021/04/17 00:18:02;;;;;;;4.55;3.50;;;5.90;70.00;6.40;99842.00;;;;341689;28;83345;-84
2021/04/17 00:18:14;;;;;;;4.80;3.40;;;6.00;70.00;6.40;99849.00;;;;342873;28;88096;-84
2021/04/17 00:18:25;;;;;;;4.45;3.08;;;6.00;70.00;6.40;99839.00;;;;341659;28;83177;-85
2021/04/17 00:18:36;;;;;;;3.67;3.08;;;6.00;69.80;6.40;99843.00;;;;340025;28;85863;-84
2021/04/17 00:18:48;;;;;;;3.47;3.17;;;6.00;69.80;6.40;99839.00;;;;341667;28;83926;-83
2021/04/17 00:19:00;;;;;;;3.85;3.22;;;6.00;69.90;6.40;99828.00;;;;342975;28;88616;-84
2021/04/17 00:19:11;;;;;;;4.35;3.50;;;6.00;69.80;6.40;99837.00;;;;342886;28;84692;-84
2021/04/17 00:19:22;;;;;;;5.13;3.35;;;6.00;69.70;6.30;99843.00;;;;340181;28;87776;-84
2021/04/17 00:19:35;;;;;;;5.13;3.30;;;6.00;69.70;6.40;99841.00;;;;342911;28;83462;-86
2021/04/17 00:19:49;;;;;;;5.82;3.30;;;6.00;69.80;6.50;99845.00;;;;343052;28;85146;-84
2021/04/17 00:20:00;;;;;;;4.45;3.13;;;6.00;69.70;6.50;99850.00;;;;343132;28;83344;-83
2021/04/17 00:20:13;;;;;;;3.70;2.70;;;6.10;69.70;6.50;99850.00;;;;343005;28;85393;-85
2021/04/17 00:20:24;;;;;;;3.47;2.70;;;6.10;69.70;6.40;99841.00;;;;343054;28;83023;-84
2021/04/17 00:20:35;;;;;;;3.67;3.15;;;6.10;69.60;6.40;99848.00;;;;341586;28;83481;-84
2021/04/17 00:20:46;;;;;;;3.40;3.10;;;6.10;69.50;6.50;99846.00;;;;343158;28;83299;-84
2021/04/17 00:20:58;;;;;;;3.50;2.97;;;6.10;69.60;6.60;99842.00;;;;341566;28;87409;-84
2021/04/17 00:21:09;;;;;;;3.67;2.83;;;6.10;69.60;6.50;99843.00;;;;342957;28;83398;-84
2021/04/17 00:21:20;;;;;;;3.45;2.63;;;6.10;69.50;6.60;99836.00;;;;344323;28;86173;-84
2021/04/17 00:21:32;;;;;;;2.97;2.58;;;6.10;69.50;6.60;99843.00;;;;344483;28;83328;-84
2021/04/17 00:21:43;;;;;;;4.28;2.95;;;6.10;69.50;6.70;99837.00;;;;344105;28;87429;-84
2021/04/17 00:21:54;;;;;;;4.90;3.33;;;6.20;69.50;6.60;99848.00;;;;344496;28;83317;-83
2021/04/17 00:22:06;;;;;;;4.30;3.42;;;6.20;69.50;6.60;99839.00;;;;343026;28;85438;-84
2021/04/17 00:22:17;;;;;;;3.40;3.10;;;6.20;70.10;6.50;99841.00;;;;341616;28;85634;-84
2021/04/17 00:22:28;;;;;;;3.42;3.10;;;6.20;69.40;6.60;99840.00;;;;343020;28;85380;-84
2021/04/17 00:22:39;;;;;;;3.78;3.25;;;6.20;69.40;6.60;99835.00;;;;342981;28;84184;-83
2021/04/17 00:22:51;;;;;;;3.83;3.40;;;6.20;69.40;6.60;99843.00;;;;343015;28;85935;-84
2021/04/17 00:23:02;;;;;;;4.15;3.75;;;6.20;69.50;6.60;99835.00;;;;341770;28;83349;-84
2021/04/17 00:23:13;;;;;;;4.85;3.50;;;6.20;69.40;6.60;99840.00;;;;342972;28;83808;-83
2021/04/17 00:23:24;;;;;;;5.30;3.20;;;6.30;69.40;6.70;99842.00;;;;343082;28;83500;-83
2021/04/17 00:23:36;;;;;;;5.07;3.00;;;6.30;69.30;6.70;99839.00;;;;341734;28;84114;-84
2021/04/17 00:23:47;;;;;;;3.88;2.83;;;6.30;69.30;6.60;99833.00;;;;344359;28;83854;-82
2021/04/17 00:23:59;;;;;;;3.42;3.10;;;6.30;69.30;6.70;99839.00;;;;341694;28;84126;-84
2021/04/17 00:24:11;;;;;;;3.92;3.28;;;6.30;69.20;6.70;99843.00;;;;344453;28;82480;-84
2021/04/17 00:24:22;;;;;;;6.60;3.30;;;6.30;69.00;6.50;99841.00;;;;341606;28;88466;-85
2021/04/17 00:24:33;;;;;;;6.55;3.20;;;6.30;68.90;6.50;99839.00;;;;342872;28;83966;-83
2021/04/17 00:24:45;;;;;;;6.70;3.10;;;6.30;69.00;6.60;99827.00;;;;344314;28;89098;-83
2021/04/17 00:24:56;;;;;;;4.65;2.90;;;6.30;69.00;6.70;99836.00;;;;341510;28;85106;-84
2021/04/17 00:25:08;;;;;;;3.65;2.78;;;6.30;69.00;6.70;99836.00;;;;344403;28;85093;-84
2021/04/17 00:25:19;;;;;;;3.92;2.95;;;6.30;68.90;6.70;99832.00;;;;343062;28;83503;-84
2021/04/17 00:25:30;;;;;;;4.05;3.10;;;6.40;68.90;6.60;99837.00;;;;342773;28;87324;-84
2021/04/17 00:25:42;;;;;;;3.90;3.00;;;6.40;68.90;6.50;99845.00;;;;343146;28;83323;-83
2021/04/17 00:25:53;;;;;;;3.58;2.95;;;6.40;68.80;6.50;99840.00;;;;342842;28;87795;-82
2021/04/17 00:26:05;;;;;;;3.10;2.80;;;6.30;68.70;6.60;99842.00;;;;341673;28;85689;-84
2021/04/17 00:26:17;;;;;;;3.33;3.03;;;6.30;68.80;6.30;99838.00;;;;341663;28;84869;-85
2021/04/17 00:26:30;;;;;;;3.55;3.17;;;6.30;68.80;6.20;99840.00;;;;341714;28;83138;-84
2021/04/17 00:26:41;;;;;;;3.75;3.35;;;6.20;68.80;6.40;99835.00;;;;342835;28;85715;-84
2021/04/17 00:26:53;;;;;;;3.78;3.22;;;6.20;68.80;6.40;99832.00;;;;343038;28;83330;-84
2021/04/17 00:27:06;;;;;;;3.50;3.00;;;6.20;68.80;6.40;99834.00;;;;341726;28;84405;-84
2021/04/17 00:27:17;;;;;;;3.50;2.85;;;6.20;68.80;6.30;99835.00;;;;342757;28;84770;-84
2021/04/17 00:27:29;;;;;;;3.28;2.97;;;6.20;68.90;6.20;99838.00;;;;340237;28;87100;-84
2021/04/17 00:27:40;;;;;;;3.65;3.25;;;6.20;69.00;6.20;99845.00;;;;343058;28;83379;-84
2021/04/17 00:27:51;;;;;;;3.97;3.38;;;6.10;69.00;6.20;99835.00;;;;340227;28;85014;-82
2021/04/17 00:28:03;;;;;;;4.22;3.35;;;6.10;69.10;6.10;99837.00;;;;343142;28;83558;-84
2021/04/17 00:28:14;;;;;;;4.40;3.58;;;6.10;69.30;6.20;99840.00;;;;341506;28;87223;-84
2021/04/17 00:28:26;;;;;;;3.92;3.45;;;6.10;69.20;6.10;99844.00;;;;341768;28;83324;-85
2021/04/17 00:28:37;;;;;;;4.53;3.22;;;6.10;69.30;6.20;99836.00;;;;342397;28;87819;-84
2021/04/17 00:28:48;;;;;;;5.20;3.15;;;6.00;69.40;6.20;99834.00;;;;340589;28;82543;-83
2021/04/17 00:29:00;;;;;;;5.00;3.13;;;6.00;69.40;6.30;99839.00;;;;342916;28;86803;-83
2021/04/17 00:29:11;;;;;;;4.25;3.08;;;6.00;69.40;6.30;99837.00;;;;342954;28;84204;-84
2021/04/17 00:29:23;;;;;;;4.07;3.13;;;6.00;69.40;6.30;99834.00;;;;341565;28;87454;-84
2021/04/17 00:29:35;;;;;;;4.13;3.33;;;6.00;69.40;6.20;99833.00;;;;342955;28;83680;-84
2021/04/17 00:29:46;;;;;;;4.28;3.42;;;6.00;69.40;6.20;99835.00;;;;341648;28;85336;-84
2021/04/17 00:29:58;;;;;;;4.55;3.63;;;6.00;69.40;6.30;99840.00;;;;342757;28;84697;-84
2021/04/17 00:30:10;;;;;;;3.97;3.38;;;6.00;69.40;6.30;99832.00;;;;343034;28;84607;-84
2021/04/17 00:30:22;;;;;;;3.58;3.28;;;6.00;69.60;6.20;99837.00;;;;342964;28;83429;-84
2021/04/17 00:30:33;;;;;;;4.35;3.30;;;6.10;69.70;6.20;99837.00;;;;339815;28;87420;-85
2021/04/17 00:30:45;;;;;;;4.38;3.28;;;6.00;69.80;6.20;99838.00;;;;341651;28;83378;-84
2021/04/17 00:30:56;;;;;;;3.95;3.22;;;6.00;70.00;6.20;99828.00;;;;344283;28;88426;-84
2021/04/17 00:31:07;;;;;;;4.28;3.50;;;6.00;69.90;6.30;99831.00;;;;341595;28;84543;-83
2021/04/17 00:31:19;;;;;;;4.93;3.67;;;6.00;69.80;6.20;99828.00;;;;341616;28;85461;-84
2021/04/17 00:31:31;;;;;;;4.78;3.55;;;6.00;69.90;6.20;99826.00;;;;341526;28;84285;-85
2021/04/17 00:31:43;;;;;;;4.28;3.40;;;6.00;69.90;6.30;99832.00;;;;345875;28;84783;-84
2021/04/17 00:31:54;;;;;;;5.47;3.42;;;6.00;69.70;6.30;99827.00;;;;343075;28;82492;-84
2021/04/17 00:32:07;;;;;;;5.13;3.60;;;6.00;69.60;6.30;99824.00;;;;341575;28;87938;-85
2021/04/17 00:32:20;;;;;;;3.88;3.47;;;6.00;69.60;6.20;99834.00;;;;341553;28;85310;-85
2021/04/17 00:32:31;;;;;;;3.45;2.97;;;6.00;69.80;6.20;99836.00;;;;341472;28;86679;-84
2021/04/17 00:32:43;;;;;;;3.48;3.06;;;6.00;69.80;6.00;99826.00;;;;344316;28;83607;-84
2021/04/17 00:32:54;;;;;;;3.60;3.20;;;5.90;69.80;6.00;99831.00;;;;344127;28;87826;-84
2021/04/17 00:33:06;;;;;;;3.95;3.55;;;5.90;69.90;5.90;99828.00;;;;344266;28;85183;-84
2021/04/17 00:33:17;;;;;;;4.15;3.72;;;5.90;70.70;5.90;99831.00;;;;345533;28;89085;-83
2021/04/17 00:33:29;;;;;;;4.38;3.97;;;5.80;70.20;5.90;99834.00;;;;340348;28;83504;-83
2021/04/17 00:33:40;;;;;;;4.38;3.97;;;5.80;70.40;6.00;99833.00;;;;341606;28;85673;-84
2021/04/17 00:33:52;;;;;;;4.88;4.30;;;5.80;70.30;5.90;99834.00;;;;344165;28;85189;-83
2021/04/17 00:34:03;;;;;;;5.93;4.00;;;5.80;70.50;6.00;99829.00;;;;344407;28;85024;-84
2021/04/17 00:34:14;;;;;;;5.78;3.60;;;5.80;70.50;6.00;99813.00;;;;344401;28;83397;-84
2021/04/17 00:34:26;;;;;;;4.55;3.15;;;5.80;70.60;5.90;99825.00;;;;341577;28;85713;-84
2021/04/17 00:34:37;;;;;;;3.50;2.95;;;5.80;70.80;5.90;99834.00;;;;343834;28;84663;-84
2021/04/17 00:34:51;;;;;;;3.40;3.10;;;5.70;70.80;6.00;99828.00;;;;341481;28;88231;-83
2021/04/17 00:35:03;;;;;;;3.30;3.00;;;5.70;70.60;6.10;99829.00;;;;345552;28;83889;-84
2021/04/17 00:35:14;;;;;;;3.42;3.13;;;5.70;70.60;6.00;99831.00;;;;338833;28;87684;-83
2021/04/17 00:35:26;;;;;;;3.58;3.28;;;5.70;70.90;6.10;99826.00;;;;341661;28;83530;-84
2021/04/17 00:35:37;;;;;;;3.60;3.30;;;5.70;70.90;6.10;99823.00;;;;338938;28;84188;-88
2021/04/17 00:35:48;;;;;;;3.42;2.97;;;5.70;70.80;6.00;99832.00;;;;341600;28;83401;-86
2021/04/17 00:36:00;;;;;;;3.40;2.97;;;5.70;70.80;6.10;99826.00;;;;342914;28;87155;-84
2021/04/17 00:36:11;;;;;;;4.07;2.95;;;5.70;70.70;6.10;99831.00;;;;344357;28;83923;-84
2021/04/17 00:36:22;;;;;;;4.30;3.17;;;5.70;70.80;6.00;99826.00;;;;344454;28;84005;-84
2021/04/17 00:36:34;;;;;;;4.43;3.28;;;5.70;70.80;5.90;99832.00;;;;344099;28;84590;-84
2021/04/17 00:36:45;;;;;;;4.00;3.60;;;5.70;70.90;5.90;99831.00;;;;344038;28;88162;-84
2021/04/17 00:36:56;;;;;;;4.47;3.60;;;5.60;71.00;6.00;99828.00;;;;343047;28;83468;-84
2021/04/17 00:37:09;;;;;;;4.50;3.65;;;5.70;70.90;6.00;99829.00;;;;342927;28;87908;-84
2021/04/17 00:37:20;;;;;;;4.40;3.58;;;5.70;70.90;6.00;99828.00;;;;340345;28;83436;-84
2021/04/17 00:37:31;;;;;;;4.07;3.53;;;5.70;70.90;5.90;99826.00;;;;345385;28;87533;-85
2021/04/17 00:37:43;;;;;;;4.15;3.55;;;5.70;71.00;6.00;99826.00;;;;343025;28;83580;-84
2021/04/17 00:37:54;;;;;;;3.75;3.33;;;5.70;71.10;6.00;99821.00;;;;345533;28;87771;-84
2021/04/17 00:38:05;;;;;;;4.07;3.35;;;5.70;71.10;6.00;99826.00;;;;344281;28;84745;-83
2021/04/17 00:38:16;;;;;;;4.35;3.58;;;5.70;71.00;6.00;99826.00;;;;345769;28;85451;-83
2021/04/17 00:38:28;;;;;;;4.28;3.50;;;5.60;70.90;6.10;99825.00;;;;344223;28;84885;-84
2021/04/17 00:38:40;;;;;;;3.78;3.25;;;5.70;70.90;6.10;99826.00;;;;342839;28;88034;-85
2021/04/17 00:38:52;;;;;;;3.65;2.90;;;5.70;71.00;6.00;99826.00;;;;341726;28;82416;-83
2021/04/17 00:39:04;;;;;;;4.15;3.10;;;5.60;71.00;6.10;99822.00;;;;341639;28;85265;-83
2021/04/17 00:39:15;;;;;;;3.88;3.20;;;5.70;71.10;6.10;99821.00;;;;340105;28;84954;-84
2021/04/17 00:39:27;;;;;;;3.92;3.47;;;5.70;71.10;6.00;99826.00;;;;342874;28;84171;-84
2021/04/17 00:39:38;;;;;;;3.95;3.55;;;5.70;71.10;6.10;99822.00;;;;341609;28;84465;-84
2021/04/17 00:39:50;;;;;;;3.50;3.15;;;5.70;71.00;6.10;99824.00;;;;341561;28;85342;-84
2021/04/17 00:40:02;;;;;;;3.17;2.88;;;5.70;71.00;5.90;99823.00;;;;341370;28;83484;-86
2021/04/17 00:40:14;;;;;;;3.30;3.00;;;5.70;71.00;6.00;99821.00;;;;340297;28;87225;-82
2021/04/17 00:40:26;;;;;;;3.47;3.03;;;5.60;70.90;6.00;99823.00;;;;341588;28;85327;-84
2021/04/17 00:40:37;;;;;;;3.55;3.15;;;5.70;71.00;6.00;99823.00;;;;341759;28;85496;-83
2021/04/17 00:40:49;;;;;;;3.63;3.25;;;5.70;71.00;6.00;99821.00;;;;340853;28;85253;-84
2021/04/17 00:41:00;;;;;;;3.45;3.15;;;5.70;71.10;6.00;99826.00;;;;344506;28;84353;-84
2021/04/17 00:41:11;;;;;;;4.03;3.20;;;5.70;71.10;6.00;99822.00;;;;340218;28;83404;-83
2021/04/17 00:41:23;;;;;;;4.44;3.34;;;5.70;71.00;6.10;99827.00;;;;341550;28;88363;-84
2021/04/17 00:41:34;;;;;;;4.65;3.50;;;5.70;71.00;6.10;99827.00;;;;341643;28;83298;-85
2021/04/17 00:41:46;;;;;;;4.13;3.65;;;5.70;71.00;6.10;99818.00;;;;341685;28;84414;-84
2021/04/17 00:41:57;;;;;;;3.97;3.58;;;5.70;71.10;6.10;99819.00;;;;342946;28;83443;-84
2021/04/17 00:42:08;;;;;;;4.07;3.67;;;5.70;71.20;6.10;99824.00;;;;341551;28;87186;-84
2021/04/17 00:42:19;;;;;;;3.85;3.35;;;5.70;71.20;6.10;99823.00;;;;343031;28;84817;-82
2021/04/17 00:42:31;;;;;;;3.60;3.22;;;5.70;71.10;6.20;99813.00;;;;342840;28;87195;-84
2021/04/17 00:42:42;;;;;;;3.63;3.33;;;5.70;71.70;6.00;99806.00;;;;344413;28;83380;-84
2021/04/17 00:42:53;;;;;;;4.45;3.30;;;5.70;71.10;6.00;99817.00;;;;344131;28;87712;-86
2021/04/17 00:43:05;;;;;;;5.40;3.72;;;5.70;71.10;6.10;99822.00;;;;342822;28;83826;-84
2021/04/17 00:43:17;;;;;;;5.68;3.92;;;5.70;71.00;6.10;99818.00;;;;344262;28;85644;-83
2021/04/17 00:43:29;;;;;;;4.57;3.92;;;5.70;71.10;6.10;99823.00;;;;344387;28;83326;-84
2021/04/17 00:43:40;;;;;;;4.15;3.65;;;5.70;70.90;6.10;99821.00;;;;342717;28;85277;-84
2021/04/17 00:43:51;;;;;;;5.32;3.20;;;5.80;71.00;6.10;99821.00;;;;340030;28;85894;-84
2021/04/17 00:44:04;;;;;;;5.50;3.25;;;5.80;70.90;6.20;99821.00;;;;341519;28;84768;-84
2021/04/17 00:44:15;;;;;;;4.03;3.08;;;5.80;70.90;6.10;99812.00;;;;343030;28;83493;-84
2021/04/17 00:44:28;;;;;;;3.72;3.03;;;5.80;70.90;6.20;99818.00;;;;342899;28;86883;-84
2021/04/17 00:44:39;;;;;;;4.30;3.10;;;5.80;70.80;6.20;99822.00;;;;340794;28;84943;-84
2021/04/17 00:44:50;;;;;;;4.35;3.22;;;5.80;70.60;6.30;99819.00;;;;341509;28;87761;-84
2021/04/17 00:45:06;;;;;;;4.25;3.47;;;5.80;70.60;6.10;99822.00;;;;342740;28;83416;-84
2021/04/17 00:45:17;;;;;;;4.18;3.78;;;5.80;70.70;6.20;99823.00;;;;341405;28;88783;-84
2021/04/17 00:45:29;;;;;;;4.47;4.07;;;5.80;70.70;6.20;99818.00;;;;340221;28;85290;-84
2021/04/17 00:45:40;;;;;;;4.10;3.70;;;5.80;70.80;6.20;99820.00;;;;341478;28;87663;-84
2021/04/17 00:45:52;;;;;;;3.92;3.53;;;5.80;70.60;6.10;99819.00;;;;342967;28;83327;-85
2021/04/17 00:46:03;;;;;;;4.10;3.63;;;5.90;70.60;6.20;99821.00;;;;344377;28;85446;-84
2021/04/17 00:46:15;;;;;;;5.40;3.65;;;5.90;70.50;6.20;99812.00;;;;341622;28;85278;-84
2021/04/17 00:46:26;;;;;;;5.80;3.92;;;5.90;70.50;6.20;99819.00;;;;341695;28;85774;-84
2021/04/17 00:46:38;;;;;;;5.07;3.78;;;5.90;70.50;6.10;99820.00;;;;343973;28;85231;-84
2021/04/17 00:46:49;;;;;;;4.25;3.33;;;5.90;70.60;6.00;99822.00;;;;344132;28;86171;-84
2021/04/17 00:47:04;;;;;;;4.22;3.40;;;5.90;70.60;6.00;99817.00;;;;344312;28;83942;-85
2021/04/17 00:47:15;;;;;;;4.65;3.80;;;5.80;70.60;6.10;99807.00;;;;344196;28;88604;-83
2021/04/17 00:47:43;;;;;;;4.63;3.55;;;5.80;70.60;6.20;99812.00;;;;342650;28;84911;-84
2021/04/17 00:47:54;;;;;;;4.03;3.63;;;5.90;70.70;6.10;99818.00;;;;342752;28;85873;-84
2021/04/17 00:48:06;;;;;;;3.85;3.42;;;5.80;70.60;6.20;99818.00;;;;343031;28;83447;-84
2021/04/17 00:48:17;;;;;;;4.38;3.38;;;5.80;70.60;6.10;99817.00;;;;340166;28;87507;-84
2021/04/17 00:48:29;;;;;;;4.40;3.40;;;5.90;70.60;6.20;99819.00;;;;340199;28;83600;-84
2021/04/17 00:48:42;;;;;;;4.13;3.25;;;5.80;70.50;6.10;99819.00;;;;339819;28;88936;-84
2021/04/17 00:48:53;;;;;;;3.92;3.53;;;5.90;70.50;6.10;99819.00;;;;341614;28;85103;-84
2021/04/17 00:49:05;;;;;;;4.38;3.97;;;5.80;70.50;6.20;99820.00;;;;340264;28;85554;-84
2021/04/17 00:49:16;;;;;;;4.28;3.88;;;5.90;70.60;6.20;99805.00;;;;341634;28;83389;-84
2021/04/17 00:49:27;;;;;;;4.57;3.78;;;5.90;70.70;6.20;99819.00;;;;342662;28;86834;-83
2021/04/17 00:49:39;;;;;;;4.28;3.58;;;5.90;70.70;6.10;99818.00;;;;340834;28;83674;-83
2021/04/17 00:49:50;;;;;;;4.97;3.58;;;5.90;70.60;6.20;99818.00;;;;343433;28;86060;-85
2021/04/17 00:50:02;;;;;;;4.93;3.35;;;5.80;70.50;6.20;99821.00;;;;342958;28;83486;-84
2021/04/17 00:50:14;;;;;;;5.20;3.30;;;5.90;70.60;6.20;99823.00;;;;342901;28;88692;-84
2021/04/17 00:50:25;;;;;;;4.78;3.20;;;5.90;70.50;6.20;99823.00;;;;340220;28;85395;-83
2021/04/17 00:50:36;;;;;;;4.53;3.33;;;5.90;70.50;6.20;99819.00;;;;341622;28;86981;-86
2021/04/17 00:50:48;;;;;;;4.60;3.28;;;5.90;70.50;6.20;99811.00;;;;341485;28;83597;-86
2021/04/17 00:50:59;;;;;;;4.25;3.38;;;5.90;70.40;6.10;99818.00;;;;341381;28;87225;-84
2021/04/17 00:51:11;;;;;;;4.15;3.17;;;5.90;70.50;6.20;99813.00;;;;341571;28;85206;-84
2021/04/17 00:51:22;;;;;;;4.28;3.17;;;5.90;70.50;6.00;99806.00;;;;342843;28;87111;-84
2021/04/17 00:51:34;;;;;;;4.57;3.25;;;5.90;70.50;6.10;99809.00;;;;340362;28;83312;-84
2021/04/17 00:51:45;;;;;;;4.38;3.38;;;5.80;70.50;6.10;99821.00;;;;342916;28;87683;-83
2021/04/17 00:51:57;;;;;;;3.83;3.42;;;5.90;70.50;6.20;99818.00;;;;342857;28;83875;-84
2021/04/17 00:52:09;;;;;;;4.93;3.75;;;5.80;70.50;6.10;99810.00;;;;341596;28;85358;-84
2021/04/17 00:52:20;;;;;;;6.93;4.20;;;5.90;70.50;6.10;99811.00;;;;340290;28;85130;-83
2021/04/17 00:52:31;;;;;;;5.68;4.00;;;5.90;70.60;6.00;99824.00;;;;341456;28;85832;-84
2021/04/17 00:52:43;;;;;;;4.35;3.45;;;5.90;70.70;6.10;99823.00;;;;341554;28;83693;-84
2021/04/17 00:52:54;;;;;;;3.92;3.52;;;5.90;70.60;6.10;99810.00;;;;344201;28;89062;-86
2021/04/17 00:53:07;;;;;;;4.28;3.88;;;5.80;70.50;6.20;99818.00;;;;342729;28;83407;-84
2021/04/17 00:53:19;;;;;;;4.40;4.00;;;5.80;70.50;6.20;99819.00;;;;340207;28;85611;-83
2021/04/17 00:53:30;;;;;;;3.85;3.45;;;5.90;70.50;6.20;99819.00;;;;344415;28;82485;-84
2021/04/17 00:53:41;;;;;;;3.80;3.47;;;5.90;70.50;6.20;99821.00;;;;341358;28;87175;-84
2021/04/17 00:53:53;;;;;;;3.92;3.53;;;5.90;70.70;6.10;99808.00;;;;342823;28;83411;-84
2021/04/17 00:54:05;;;;;;;3.83;3.40;;;5.90;70.60;6.10;99817.00;;;;341395;28;85787;-83
2021/04/17 00:54:16;;;;;;;3.65;3.28;;;5.90;70.60;6.00;99809.00;;;;341641;28;83648;-83